Time;durP1;ratioP1;P1;durP2;ratioP2;P2;SDS_P1;SDS_P2;PMS_P1;PMS_P2;Temp;Humidity;BMP_temperature;BMP_pressure;BME280_temperature;BME280_humidity;BME280_pressure;Samples;Min_cycle;Max_cycle;Signal;HPM_P1;HPM_P2
2023/08/05 00:00:13;;;;;;;6.57;2.05;;;16.60;99.90;;;;;;5032292;28;20029;-75
2023/08/05 00:02:39;;;;;;;6.40;1.73;;;16.70;99.90;;;;;;5037430;28;20426;-74
2023/08/05 00:05:06;;;;;;;3.88;2.05;;;16.70;99.90;;;;;;5035991;28;20029;-74
2023/08/05 00:07:32;;;;;;;3.00;1.50;;;16.70;99.90;;;;;;5028333;28;20165;-74
2023/08/05 00:09:58;;;;;;;4.13;2.20;;;16.60;99.90;;;;;;5032033;28;20112;-75
2023/08/05 00:12:23;;;;;;;3.55;1.63;;;16.60;99.90;;;;;;5031157;28;20036;-75
2023/08/05 00:14:49;;;;;;;4.55;1.85;;;16.50;99.90;;;;;;5032205;28;20087;-74
2023/08/05 00:17:15;;;;;;;4.68;1.42;;;16.40;99.90;;;;;;5032927;28;20033;-76
2023/08/05 00:19:42;;;;;;;4.68;1.88;;;16.40;99.90;;;;;;5028773;28;20030;-75
2023/08/05 00:22:08;;;;;;;3.35;1.60;;;16.60;99.90;;;;;;5029143;28;20029;-74
2023/08/05 00:24:34;;;;;;;3.78;2.08;;;16.60;99.90;;;;;;5036098;28;20046;-74
2023/08/05 00:27:00;;;;;;;3.55;1.65;;;16.50;99.90;;;;;;5028024;28;20040;-74
2023/08/05 00:29:25;;;;;;;3.35;1.50;;;16.60;99.90;;;;;;5029411;28;20068;-76
2023/08/05 00:31:51;;;;;;;3.63;1.67;;;16.70;99.90;;;;;;5041016;28;20044;-74
2023/08/05 00:34:16;;;;;;;4.68;1.95;;;16.80;99.90;;;;;;5029250;28;20029;-75
2023/08/05 00:36:42;;;;;;;4.90;1.60;;;16.80;99.90;;;;;;5037335;28;20060;-75
2023/08/05 00:39:08;;;;;;;4.00;1.98;;;16.80;99.90;;;;;;5035527;28;20032;-74
2023/08/05 00:41:33;;;;;;;4.88;1.75;;;16.90;99.90;;;;;;5041241;28;20075;-74
2023/08/05 00:43:59;;;;;;;3.83;1.83;;;16.90;99.90;;;;;;5032339;28;20036;-74
2023/08/05 00:46:25;;;;;;;5.65;1.98;;;16.80;99.90;;;;;;5032515;28;20471;-75
2023/08/05 00:48:52;;;;;;;6.53;1.83;;;16.70;99.90;;;;;;5027789;28;20033;-75
2023/08/05 00:51:20;;;;;;;5.18;1.65;;;16.90;99.90;;;;;;5035952;28;20069;-74
2023/08/05 00:53:47;;;;;;;3.53;1.42;;;16.90;99.90;;;;;;5035629;28;20033;-74
2023/08/05 00:56:14;;;;;;;5.82;2.08;;;16.90;99.90;;;;;;5030144;28;20083;-74
2023/08/05 00:58:42;;;;;;;4.28;1.52;;;16.90;99.90;;;;;;5027550;28;20029;-75
2023/08/05 01:01:08;;;;;;;3.40;1.90;;;17.00;99.90;;;;;;5033760;28;20356;-74
2023/08/05 01:03:33;;;;;;;5.35;2.20;;;17.00;99.90;;;;;;5027249;28;20036;-74
2023/08/05 01:06:00;;;;;;;4.00;2.10;;;16.80;99.90;;;;;;5030736;28;20091;-74
2023/08/05 01:08:26;;;;;;;5.45;1.70;;;16.90;99.90;;;;;;5032964;28;20032;-74
2023/08/05 01:10:52;;;;;;;5.32;1.60;;;16.60;99.90;;;;;;5033827;28;20034;-75
2023/08/05 01:13:20;;;;;;;3.47;1.45;;;16.60;99.90;;;;;;5037319;28;20439;-74
2023/08/05 01:15:45;;;;;;;3.38;1.88;;;16.70;99.90;;;;;;5032713;28;20032;-74
2023/08/05 01:18:13;;;;;;;2.88;1.25;;;16.60;99.90;;;;;;5038359;28;20045;-75
2023/08/05 01:20:45;;;;;;;5.28;1.45;;;16.70;99.90;;;;;;5030567;28;20051;-75
2023/08/05 01:23:28;;;;;;;3.30;1.50;;;16.60;99.90;;;;;;5031323;28;20490;-74
2023/08/05 01:25:54;;;;;;;2.63;1.10;;;16.70;99.90;;;;;;5033272;28;20510;-74
2023/08/05 01:28:20;;;;;;;3.15;1.35;;;16.70;99.90;;;;;;5036822;28;20029;-74
2023/08/05 01:30:47;;;;;;;3.42;1.55;;;16.80;99.90;;;;;;5034114;28;20429;-75
2023/08/05 01:33:14;;;;;;;4.82;1.58;;;16.90;99.90;;;;;;5035015;28;20104;-75
2023/08/05 01:35:46;;;;;;;5.50;1.38;;;16.70;99.90;;;;;;5033587;28;20140;-75
2023/08/05 01:38:11;;;;;;;3.15;1.52;;;16.60;99.90;;;;;;5031394;28;20045;-74
2023/08/05 01:40:37;;;;;;;2.97;1.30;;;16.70;99.90;;;;;;5038296;28;20029;-75
2023/08/05 01:43:03;;;;;;;3.53;1.30;;;16.60;99.90;;;;;;5034950;28;20036;-74
2023/08/05 01:45:28;;;;;;;3.97;1.52;;;16.60;99.90;;;;;;5036007;28;20026;-75
2023/08/05 01:47:54;;;;;;;4.30;1.90;;;16.50;99.90;;;;;;5031408;28;20379;-74
2023/08/05 01:50:20;;;;;;;5.13;1.77;;;16.40;99.90;;;;;;5032408;28;21088;-75
2023/08/05 01:52:45;;;;;;;4.32;1.65;;;16.50;99.90;;;;;;5032902;28;20036;-75
2023/08/05 01:55:11;;;;;;;4.22;1.33;;;16.60;99.90;;;;;;5037840;28;20052;-75
2023/08/05 01:57:37;;;;;;;5.25;1.38;;;16.60;99.90;;;;;;5038479;28;20065;-75
2023/08/05 02:00:03;;;;;;;2.42;1.20;;;16.70;99.90;;;;;;5038344;28;20033;-75
2023/08/05 02:02:28;;;;;;;5.72;1.63;;;16.70;99.90;;;;;;5043953;28;20540;-74
2023/08/05 02:04:54;;;;;;;3.17;1.30;;;16.80;99.90;;;;;;5031531;28;20043;-74
2023/08/05 02:07:19;;;;;;;4.22;1.48;;;16.70;99.90;;;;;;5029653;28;20493;-75
2023/08/05 02:09:45;;;;;;;3.67;1.40;;;16.60;99.90;;;;;;5035637;28;20032;-74
2023/08/05 02:12:11;;;;;;;2.83;1.30;;;16.60;99.90;;;;;;5036524;28;20029;-75
2023/08/05 02:14:36;;;;;;;5.97;1.85;;;16.40;99.90;;;;;;5040549;28;20035;-74
2023/08/05 02:17:02;;;;;;;5.10;1.20;;;16.30;99.90;;;;;;5041870;28;20124;-74
2023/08/05 02:19:27;;;;;;;2.97;1.45;;;16.30;99.90;;;;;;5036385;28;20146;-74
2023/08/05 02:21:53;;;;;;;5.53;1.98;;;16.30;99.90;;;;;;5030399;28;20179;-74
2023/08/05 02:24:19;;;;;;;3.20;1.45;;;16.30;99.90;;;;;;5034560;28;20577;-75
2023/08/05 02:26:44;;;;;;;2.83;1.40;;;16.40;99.90;;;;;;5032697;28;20033;-74
2023/08/05 02:29:10;;;;;;;4.20;1.23;;;16.50;99.90;;;;;;5043686;28;20070;-75
2023/08/05 02:31:35;;;;;;;4.88;1.50;;;16.70;99.90;;;;;;5045370;28;20122;-74
2023/08/05 02:34:01;;;;;;;2.47;1.00;;;16.60;99.90;;;;;;5031806;28;20032;-74
2023/08/05 02:36:27;;;;;;;4.72;1.40;;;16.30;99.90;;;;;;5033724;28;20136;-74
2023/08/05 02:38:52;;;;;;;2.97;1.15;;;16.30;99.90;;;;;;5048476;28;20033;-75
2023/08/05 02:41:18;;;;;;;3.15;1.27;;;16.50;99.90;;;;;;5039166;28;20120;-74
2023/08/05 02:43:44;;;;;;;5.25;1.83;;;16.60;99.90;;;;;;5033639;28;20033;-75
2023/08/05 02:46:10;;;;;;;3.80;1.30;;;16.80;99.90;;;;;;5029774;28;20100;-74
2023/08/05 02:48:35;;;;;;;3.83;1.50;;;16.90;99.90;;;;;;5029438;28;20781;-75
2023/08/05 02:51:01;;;;;;;4.93;1.38;;;16.80;99.90;;;;;;5037222;28;20164;-76
2023/08/05 02:53:28;;;;;;;2.88;0.90;;;16.60;99.90;;;;;;5030775;28;20037;-75
2023/08/05 02:55:53;;;;;;;4.78;1.48;;;16.30;99.90;;;;;;5038374;28;20049;-75
2023/08/05 02:58:19;;;;;;;1.75;0.90;;;16.30;99.90;;;;;;5030731;28;20037;-74
2023/08/05 03:00:46;;;;;;;4.70;1.60;;;16.60;99.90;;;;;;5029640;28;20040;-74
2023/08/05 03:03:14;;;;;;;2.53;0.90;;;16.70;99.90;;;;;;5034427;28;20025;-76
2023/08/05 03:05:39;;;;;;;3.75;1.10;;;16.50;99.90;;;;;;5025327;28;20363;-76
2023/08/05 03:08:05;;;;;;;1.40;0.50;;;16.30;99.90;;;;;;5025127;28;20040;-74
2023/08/05 03:10:31;;;;;;;1.65;0.70;;;16.70;99.90;;;;;;5031357;28;20108;-75
2023/08/05 03:12:56;;;;;;;5.22;1.27;;;16.50;99.90;;;;;;5032182;28;20116;-76
2023/08/05 03:15:22;;;;;;;4.38;1.30;;;16.30;99.90;;;;;;5023727;28;20033;-76
2023/08/05 03:17:47;;;;;;;2.58;0.90;;;16.30;99.90;;;;;;5029709;28;20549;-77
2023/08/05 03:20:30;;;;;;;1.90;0.80;;;16.80;99.90;;;;;;5028643;28;20076;-75
2023/08/05 03:22:57;;;;;;;3.50;1.17;;;16.90;99.90;;;;;;5024335;28;20026;-76
2023/08/05 03:25:24;;;;;;;2.17;0.70;;;16.90;99.90;;;;;;5023325;28;20687;-76
2023/08/05 03:27:50;;;;;;;0.93;0.45;;;16.90;99.90;;;;;;5033430;28;20483;-75
2023/08/05 03:30:16;;;;;;;1.02;0.47;;;16.70;99.90;;;;;;5027008;28;20083;-75
2023/08/05 03:32:42;;;;;;;2.17;0.60;;;16.70;99.90;;;;;;5026372;28;20071;-76
2023/08/05 03:35:08;;;;;;;5.15;0.70;;;16.90;99.90;;;;;;5030832;28;20045;-76
2023/08/05 03:37:34;;;;;;;2.25;0.55;;;17.20;99.90;;;;;;5030712;28;20052;-76
2023/08/05 03:39:59;;;;;;;1.27;0.70;;;17.30;99.90;;;;;;5025262;28;20034;-77
2023/08/05 03:42:25;;;;;;;2.00;0.68;;;17.40;99.90;;;;;;5025311;28;20076;-75
2023/08/05 03:44:51;;;;;;;1.35;0.65;;;17.20;99.90;;;;;;5025009;28;20071;-76
2023/08/05 03:47:17;;;;;;;2.60;0.63;;;17.10;99.90;;;;;;5023882;28;20028;-75
2023/08/05 03:49:42;;;;;;;2.22;0.70;;;17.10;99.90;;;;;;5024710;28;20037;-75
2023/08/05 03:52:09;;;;;;;3.38;0.60;;;17.40;99.90;;;;;;5028481;28;20029;-75
2023/08/05 03:54:34;;;;;;;1.13;0.50;;;17.00;99.90;;;;;;5026734;28;20034;-75
2023/08/05 03:57:02;;;;;;;2.30;0.52;;;17.10;99.90;;;;;;5031679;28;20385;-75
2023/08/05 03:59:28;;;;;;;4.45;0.90;;;17.20;99.90;;;;;;5033030;28;20410;-75
2023/08/05 04:01:54;;;;;;;2.63;0.52;;;17.20;99.90;;;;;;5024713;28;20063;-75
2023/08/05 04:04:19;;;;;;;1.52;0.68;;;17.20;99.90;;;;;;5023621;28;20059;-76
2023/08/05 04:06:45;;;;;;;3.25;0.80;;;17.20;99.90;;;;;;5029913;28;20083;-75
2023/08/05 04:09:12;;;;;;;1.48;0.77;;;17.10;99.90;;;;;;5027056;28;20029;-76
2023/08/05 04:11:38;;;;;;;1.60;0.63;;;17.10;99.90;;;;;;5027756;28;20742;-76
2023/08/05 04:14:04;;;;;;;1.27;0.47;;;17.20;99.90;;;;;;5028175;28;20033;-76
2023/08/05 04:16:30;;;;;;;1.73;0.60;;;17.30;99.90;;;;;;5035772;28;20079;-75
2023/08/05 04:18:57;;;;;;;2.65;0.63;;;17.60;99.90;;;;;;5032395;28;20045;-75
2023/08/05 04:21:28;;;;;;;0.68;0.30;;;17.40;99.90;;;;;;5027017;28;20491;-76
2023/08/05 04:23:54;;;;;;;0.77;0.40;;;17.30;99.90;;;;;;5032301;28;20394;-75
2023/08/05 04:26:20;;;;;;;1.25;0.35;;;17.30;99.90;;;;;;5029078;28;20035;-75
2023/08/05 04:28:46;;;;;;;2.15;0.40;;;17.60;99.90;;;;;;5024661;28;20025;-75
2023/08/05 04:31:13;;;;;;;2.00;0.60;;;17.50;99.90;;;;;;5025266;28;20033;-76
2023/08/05 04:33:39;;;;;;;1.65;0.63;;;17.90;99.90;;;;;;5022504;28;20045;-77
2023/08/05 04:36:04;;;;;;;0.88;0.30;;;17.60;99.90;;;;;;5025426;28;20045;-75
2023/08/05 04:38:30;;;;;;;0.77;0.38;;;17.60;99.90;;;;;;5028214;28;20045;-76
2023/08/05 04:40:57;;;;;;;1.05;0.40;;;17.60;99.90;;;;;;5023932;28;20033;-76
2023/08/05 04:43:22;;;;;;;1.13;0.50;;;17.60;99.90;;;;;;5028682;28;20037;-75
2023/08/05 04:45:51;;;;;;;0.57;0.30;;;17.60;99.90;;;;;;5036481;28;20036;-75
2023/08/05 04:48:17;;;;;;;1.27;0.65;;;17.70;99.90;;;;;;5032092;28;20029;-75
2023/08/05 04:50:43;;;;;;;1.15;0.30;;;17.80;99.90;;;;;;5028842;28;20040;-76
2023/08/05 04:53:09;;;;;;;1.10;0.30;;;17.60;99.90;;;;;;5025350;28;20040;-75
2023/08/05 04:55:35;;;;;;;1.20;0.65;;;17.60;99.90;;;;;;5034009;28;20017;-75
2023/08/05 04:58:02;;;;;;;0.73;0.28;;;17.60;99.90;;;;;;5027423;28;20082;-78
2023/08/05 05:00:28;;;;;;;1.15;0.35;;;17.70;99.90;;;;;;5022607;28;20079;-75
2023/08/05 05:02:53;;;;;;;0.60;0.28;;;17.70;99.90;;;;;;5024855;28;20034;-75
2023/08/05 05:05:19;;;;;;;1.10;0.38;;;17.70;99.90;;;;;;5025710;28;20033;-75
2023/08/05 05:07:45;;;;;;;2.50;0.28;;;17.50;99.90;;;;;;5023310;28;20068;-75
2023/08/05 05:10:10;;;;;;;0.52;0.28;;;17.50;99.90;;;;;;5031967;28;20022;-76
2023/08/05 05:12:36;;;;;;;1.10;0.28;;;17.70;99.90;;;;;;5024111;28;20554;-76
2023/08/05 05:15:02;;;;;;;0.20;0.10;;;17.60;99.90;;;;;;5030001;28;20030;-77
2023/08/05 05:17:34;;;;;;;1.20;0.32;;;17.60;99.90;;;;;;5028900;28;20032;-76
2023/08/05 05:20:00;;;;;;;1.52;0.45;;;17.70;99.90;;;;;;5035674;28;20451;-76
2023/08/05 05:22:26;;;;;;;2.20;0.30;;;17.80;99.90;;;;;;5034101;28;20037;-76
2023/08/05 05:24:52;;;;;;;0.38;0.20;;;17.80;99.90;;;;;;5036023;28;20025;-74
2023/08/05 05:27:18;;;;;;;1.63;0.50;;;17.80;99.90;;;;;;5035842;28;20121;-75
2023/08/05 05:29:44;;;;;;;1.08;0.22;;;17.80;99.90;;;;;;5037116;28;20026;-75
2023/08/05 05:32:10;;;;;;;1.10;0.55;;;17.80;99.90;;;;;;5034505;28;20030;-75
2023/08/05 05:34:36;;;;;;;0.63;0.25;;;17.90;99.90;;;;;;5032841;28;20083;-75
2023/08/05 05:37:02;;;;;;;0.57;0.22;;;17.90;99.90;;;;;;5029337;28;20045;-76
2023/08/05 05:39:28;;;;;;;1.65;0.70;;;17.90;99.90;;;;;;5034812;28;20102;-76
2023/08/05 05:41:55;;;;;;;0.77;0.28;;;17.70;99.90;;;;;;5030902;28;20375;-76
2023/08/05 05:44:24;;;;;;;1.10;0.50;;;17.80;99.90;;;;;;5030559;28;20056;-76
2023/08/05 05:46:49;;;;;;;2.70;0.47;;;17.70;99.90;;;;;;5028354;28;20450;-75
2023/08/05 05:49:15;;;;;;;0.30;0.28;;;17.70;99.90;;;;;;5030385;28;20025;-75
2023/08/05 05:51:45;;;;;;;1.02;0.30;;;17.80;99.90;;;;;;5030204;28;20025;-75
2023/08/05 05:54:11;;;;;;;1.17;0.30;;;17.80;99.90;;;;;;5032444;28;20586;-75
2023/08/05 05:56:37;;;;;;;0.20;0.20;;;17.90;99.90;;;;;;5028767;28;20055;-75
2023/08/05 05:59:02;;;;;;;0.60;0.22;;;18.00;99.90;;;;;;5030418;28;20041;-76
2023/08/05 06:01:28;;;;;;;0.30;0.30;;;17.90;99.90;;;;;;5026736;28;20367;-75
2023/08/05 06:03:54;;;;;;;0.30;0.20;;;17.90;99.90;;;;;;5030020;28;20032;-75
2023/08/05 06:06:19;;;;;;;0.82;0.17;;;17.80;99.90;;;;;;5031673;28;20068;-76
2023/08/05 06:08:45;;;;;;;0.77;0.30;;;18.00;99.90;;;;;;5027474;28;20037;-75
2023/08/05 06:11:11;;;;;;;1.35;0.40;;;17.80;99.90;;;;;;5028312;28;20539;-75
2023/08/05 06:13:36;;;;;;;1.65;0.60;;;17.80;99.90;;;;;;5030111;28;20033;-75
2023/08/05 06:16:02;;;;;;;1.45;0.52;;;17.70;99.90;;;;;;5032042;28;20030;-75
2023/08/05 06:18:28;;;;;;;1.90;0.40;;;17.80;99.90;;;;;;5032560;28;20337;-75
2023/08/05 06:20:53;;;;;;;0.82;0.30;;;17.80;99.90;;;;;;5029036;28;20420;-76
2023/08/05 06:23:19;;;;;;;2.15;0.50;;;17.60;99.90;;;;;;5033971;28;20060;-75
2023/08/05 06:25:46;;;;;;;1.50;0.63;;;17.60;99.90;;;;;;5039493;28;20041;-75
2023/08/05 06:28:12;;;;;;;1.63;0.60;;;17.50;99.90;;;;;;5029588;28;20053;-75
2023/08/05 06:30:44;;;;;;;1.33;0.43;;;17.50;99.90;;;;;;5023154;28;20424;-74
2023/08/05 06:33:10;;;;;;;0.70;0.30;;;17.40;99.90;;;;;;5032947;28;20423;-75
2023/08/05 06:35:36;;;;;;;1.80;0.32;;;17.40;99.90;;;;;;5028368;28;20052;-75
2023/08/05 06:38:02;;;;;;;1.17;0.45;;;17.50;99.90;;;;;;5029219;28;20076;-76
2023/08/05 06:40:27;;;;;;;0.98;0.40;;;17.50;99.90;;;;;;5035352;28;20371;-75
2023/08/05 06:42:53;;;;;;;0.82;0.22;;;17.50;99.90;;;;;;5034637;28;20029;-75
2023/08/05 06:45:19;;;;;;;0.65;0.20;;;17.50;99.90;;;;;;5032770;28;20419;-76
2023/08/05 06:47:45;;;;;;;1.05;0.28;;;17.60;99.90;;;;;;5031824;28;20040;-75
2023/08/05 06:50:10;;;;;;;0.50;0.30;;;17.70;99.90;;;;;;5029209;28;20037;-76
2023/08/05 06:52:36;;;;;;;0.88;0.30;;;17.60;99.90;;;;;;5029268;28;20159;-75
2023/08/05 06:55:04;;;;;;;0.60;0.22;;;17.50;99.90;;;;;;5029462;28;20048;-75
2023/08/05 06:57:33;;;;;;;2.03;0.28;;;17.50;99.90;;;;;;5026929;28;20071;-74
2023/08/05 06:59:59;;;;;;;0.75;0.35;;;17.60;99.90;;;;;;5028812;28;20104;-75
2023/08/05 07:02:25;;;;;;;0.82;0.40;;;17.60;99.90;;;;;;5024205;28;20029;-75
2023/08/05 07:04:53;;;;;;;0.90;0.35;;;17.50;99.90;;;;;;5032204;28;20037;-75
2023/08/05 07:07:19;;;;;;;0.80;0.20;;;17.50;99.90;;;;;;5030222;28;20378;-75
2023/08/05 07:09:45;;;;;;;3.83;0.40;;;17.50;99.90;;;;;;5032710;28;20029;-75
2023/08/05 07:12:11;;;;;;;1.00;0.20;;;17.50;99.90;;;;;;5027061;28;20134;-75
2023/08/05 07:14:38;;;;;;;1.85;0.40;;;17.50;99.90;;;;;;5025174;28;20097;-75
2023/08/05 07:17:04;;;;;;;0.20;0.20;;;17.50;99.90;;;;;;5027341;28;20119;-76
2023/08/05 07:19:30;;;;;;;2.55;0.45;;;17.60;99.90;;;;;;5024778;28;20634;-75
2023/08/05 07:21:56;;;;;;;0.65;0.20;;;17.60;99.90;;;;;;5028916;28;20026;-75
2023/08/05 07:24:21;;;;;;;1.55;0.50;;;17.60;99.90;;;;;;5028991;28;20104;-75
2023/08/05 07:26:47;;;;;;;2.40;0.25;;;17.60;99.90;;;;;;5026061;28;20029;-75
2023/08/05 07:29:13;;;;;;;1.45;0.43;;;17.50;99.90;;;;;;5030332;28;20056;-75
2023/08/05 07:31:38;;;;;;;1.35;0.35;;;17.50;99.90;;;;;;5031392;28;20040;-76
2023/08/05 07:34:09;;;;;;;1.35;0.43;;;17.40;99.90;;;;;;5024889;28;20021;-75
2023/08/05 07:36:35;;;;;;;0.93;0.50;;;17.50;99.90;;;;;;5119083;22;20098;-71
2023/08/05 07:39:03;;;;;;;1.60;0.40;;;17.40;99.90;;;;;;4989143;28;20460;-70
2023/08/05 07:41:30;;;;;;;0.57;0.20;;;17.40;99.90;;;;;;4988656;28;20030;-71
2023/08/05 07:43:58;;;;;;;1.60;0.40;;;17.50;99.90;;;;;;4996622;28;20035;-71
2023/08/05 07:46:25;;;;;;;1.50;0.40;;;17.40;99.90;;;;;;4983054;28;20034;-70
2023/08/05 07:48:56;;;;;;;2.15;0.30;;;17.50;99.90;;;;;;4988500;28;20057;-71
2023/08/05 07:51:23;;;;;;;0.75;0.32;;;17.50;99.90;;;;;;4989664;28;20132;-70
2023/08/05 07:53:50;;;;;;;0.77;0.30;;;17.60;99.90;;;;;;4990816;28;20049;-71
2023/08/05 07:56:16;;;;;;;0.63;0.15;;;17.60;99.90;;;;;;5008207;28;20033;-71
2023/08/05 07:58:45;;;;;;;0.77;0.25;;;17.50;99.90;;;;;;4996078;28;20100;-72
2023/08/05 08:01:13;;;;;;;1.35;0.28;;;17.50;99.90;;;;;;4994576;28;20187;-71
2023/08/05 08:03:41;;;;;;;0.75;0.30;;;17.60;99.90;;;;;;4989390;28;20022;-71
2023/08/05 08:06:07;;;;;;;1.10;0.20;;;17.60;99.90;;;;;;4991634;28;20034;-70
2023/08/05 08:08:33;;;;;;;0.80;0.35;;;17.60;99.90;;;;;;4996657;28;20068;-71
2023/08/05 08:10:59;;;;;;;1.13;0.38;;;17.60;99.90;;;;;;4986472;28;20116;-72
2023/08/05 08:13:24;;;;;;;1.42;0.50;;;17.60;99.90;;;;;;4988218;28;20092;-72
2023/08/05 08:15:50;;;;;;;1.13;0.10;;;17.70;99.90;;;;;;4992750;28;20026;-72
2023/08/05 08:18:16;;;;;;;0.40;0.30;;;17.70;99.90;;;;;;4985681;28;20199;-72
2023/08/05 08:20:48;;;;;;;1.67;0.40;;;17.70;99.90;;;;;;4988253;28;20902;-72
2023/08/05 08:23:14;;;;;;;0.85;0.20;;;17.80;99.90;;;;;;4999368;28;20476;-72
2023/08/05 08:25:40;;;;;;;1.17;0.32;;;17.90;99.90;;;;;;4993202;28;20036;-72
2023/08/05 08:28:05;;;;;;;0.68;0.20;;;18.00;99.90;;;;;;4989307;28;20498;-72
2023/08/05 08:30:31;;;;;;;0.10;0.10;;;18.00;99.90;;;;;;4988611;28;20514;-72
2023/08/05 08:32:57;;;;;;;1.55;0.50;;;18.00;99.90;;;;;;4999479;28;20100;-73
2023/08/05 08:35:22;;;;;;;0.63;0.28;;;18.20;99.90;;;;;;5007370;28;20617;-72
2023/08/05 08:37:48;;;;;;;0.70;0.38;;;18.20;99.90;;;;;;5007493;28;20133;-72
2023/08/05 08:40:13;;;;;;;0.22;0.13;;;18.30;99.90;;;;;;4990840;28;20117;-73
2023/08/05 08:42:40;;;;;;;1.30;0.20;;;18.40;99.90;;;;;;5005673;28;20030;-72
2023/08/05 08:45:09;;;;;;;0.98;0.30;;;18.40;99.90;;;;;;5008222;28;20033;-71
2023/08/05 08:47:37;;;;;;;1.65;0.40;;;18.40;99.90;;;;;;5004186;28;20018;-71
2023/08/05 08:50:03;;;;;;;1.02;0.20;;;18.60;99.90;;;;;;5028236;28;20136;-71
2023/08/05 08:52:29;;;;;;;2.58;0.30;;;18.60;99.90;;;;;;5008277;28;20115;-71
2023/08/05 08:54:55;;;;;;;0.55;0.25;;;18.70;99.90;;;;;;5007869;28;20176;-71
2023/08/05 08:57:22;;;;;;;1.15;0.20;;;18.70;99.90;;;;;;5005888;28;20113;-71
2023/08/05 08:59:47;;;;;;;0.40;0.20;;;18.60;99.90;;;;;;4992830;28;20617;-70
2023/08/05 09:02:23;;;;;;;0.73;0.38;;;18.60;99.90;;;;;;5005082;28;20022;-71
2023/08/05 09:04:51;;;;;;;2.70;0.25;;;18.60;99.90;;;;;;5003476;28;20038;-71
2023/08/05 09:07:17;;;;;;;0.63;0.30;;;18.70;99.90;;;;;;5004879;28;20551;-71
2023/08/05 09:09:49;;;;;;;3.45;0.30;;;18.60;99.90;;;;;;5005973;28;20037;-72
2023/08/05 09:12:15;;;;;;;1.48;0.40;;;18.60;99.90;;;;;;5007537;28;20530;-71
2023/08/05 09:14:41;;;;;;;1.65;0.30;;;18.80;99.90;;;;;;4992955;28;20089;-73
2023/08/05 09:17:07;;;;;;;2.50;0.30;;;18.90;99.90;;;;;;5006540;28;20029;-72
2023/08/05 09:19:33;;;;;;;1.35;0.20;;;18.90;99.90;;;;;;4987248;28;20026;-73
2023/08/05 09:22:05;;;;;;;1.58;0.30;;;19.00;99.90;;;;;;4988331;28;20061;-72
2023/08/05 09:24:31;;;;;;;0.52;0.10;;;19.00;99.90;;;;;;4989401;28;20752;-72
2023/08/05 09:27:00;;;;;;;0.38;0.20;;;19.10;99.90;;;;;;4993170;28;20041;-73
2023/08/05 09:29:27;;;;;;;0.28;0.15;;;19.20;99.90;;;;;;4998680;28;20064;-72
2023/08/05 09:32:00;;;;;;;1.55;0.30;;;19.40;99.90;;;;;;5000009;28;20087;-72
2023/08/05 09:34:34;;;;;;;0.75;0.17;;;19.40;99.90;;;;;;4998004;28;20049;-72
2023/08/05 09:37:00;;;;;;;0.40;0.20;;;19.40;99.90;;;;;;4994979;28;20044;-73
2023/08/05 09:39:30;;;;;;;0.43;0.15;;;19.40;99.90;;;;;;4996271;28;20065;-72
2023/08/05 09:41:56;;;;;;;1.10;0.10;;;19.50;99.90;;;;;;4994893;28;20041;-71
2023/08/05 09:44:21;;;;;;;0.98;0.30;;;19.70;99.90;;;;;;4999588;28;20538;-72
2023/08/05 09:46:50;;;;;;;0.05;0.00;;;19.70;99.90;;;;;;4992690;28;20061;-72
2023/08/05 09:49:17;;;;;;;0.63;0.15;;;19.80;99.90;;;;;;4997306;28;20030;-71
2023/08/05 09:51:46;;;;;;;0.52;0.20;;;19.70;99.90;;;;;;4994233;28;20034;-72
2023/08/05 09:54:17;;;;;;;2.10;0.38;;;19.80;99.90;;;;;;5001773;28;20399;-72
2023/08/05 09:56:43;;;;;;;0.47;0.20;;;20.00;99.90;;;;;;5005516;28;20045;-73
2023/08/05 09:59:12;;;;;;;0.52;0.15;;;20.20;99.90;;;;;;5005997;28;20041;-71
2023/08/05 10:01:40;;;;;;;1.00;0.25;;;20.30;99.90;;;;;;5009057;28;20030;-73
2023/08/05 10:04:06;;;;;;;0.52;0.10;;;20.40;99.90;;;;;;5009533;28;20022;-72
2023/08/05 10:06:37;;;;;;;0.45;0.20;;;20.30;99.90;;;;;;5011536;28;20025;-70
2023/08/05 10:09:02;;;;;;;0.75;0.15;;;20.20;99.90;;;;;;5007572;28;20494;-72
2023/08/05 10:11:29;;;;;;;0.22;0.15;;;20.20;99.90;;;;;;5008245;28;20060;-73
2023/08/05 10:13:56;;;;;;;1.42;0.20;;;20.30;99.90;;;;;;5011505;28;20034;-72
2023/08/05 10:16:23;;;;;;;0.30;0.10;;;20.40;99.90;;;;;;5011122;28;20038;-72
2023/08/05 10:18:49;;;;;;;1.05;0.45;;;20.60;99.90;;;;;;5010035;28;20034;-72
2023/08/05 10:21:36;;;;;;;0.93;0.30;;;20.60;99.80;;;;;;5006382;28;20419;-71
2023/08/05 10:24:01;;;;;;;0.82;0.30;;;20.50;99.40;;;;;;5007475;28;20040;-72
2023/08/05 10:26:46;;;;;;;1.48;0.30;;;20.70;99.90;;;;;;5010578;28;20030;-76
2023/08/05 10:29:28;;;;;;;0.50;0.15;;;20.80;99.90;;;;;;5008253;28;20033;-75
2023/08/05 10:32:10;;;;;;;1.20;0.30;;;20.90;99.90;;;;;;5010493;28;20641;-75
2023/08/05 10:34:36;;;;;;;1.27;0.40;;;21.00;99.90;;;;;;5012384;28;20026;-75
2023/08/05 10:37:03;;;;;;;1.67;0.22;;;20.90;99.90;;;;;;5011385;28;20104;-78
2023/08/05 10:39:40;;;;;;;0.28;0.10;;;20.90;99.90;;;;;;5011566;28;20042;-74
2023/08/05 10:42:20;;;;;;;1.23;0.30;;;21.00;99.90;;;;;;5010626;28;20061;-75
2023/08/05 10:44:49;;;;;;;0.40;0.10;;;21.10;99.90;;;;;;5011656;28;20069;-75
2023/08/05 10:47:20;;;;;;;0.85;0.25;;;21.20;99.60;;;;;;5004074;28;20033;-77
2023/08/05 10:49:46;;;;;;;0.68;0.30;;;21.30;99.90;;;;;;5010911;28;20587;-74
2023/08/05 10:52:18;;;;;;;2.30;0.50;;;21.40;99.10;;;;;;5011814;28;20034;-77
2023/08/05 10:54:46;;;;;;;0.45;0.10;;;21.30;98.80;;;;;;5011747;28;20030;-74
2023/08/05 10:57:34;;;;;;;0.77;0.30;;;21.30;99.30;;;;;;5008097;28;20666;-74
2023/08/05 11:00:00;;;;;;;2.65;0.20;;;21.50;99.90;;;;;;5009372;28;20026;-74
2023/08/05 11:02:26;;;;;;;1.52;0.20;;;21.60;99.70;;;;;;5007410;28;20120;-74
2023/08/05 11:05:06;;;;;;;0.52;0.20;;;21.70;99.90;;;;;;5009502;28;20112;-74
2023/08/05 11:07:34;;;;;;;1.00;0.43;;;21.80;99.60;;;;;;5005657;28;20410;-73
2023/08/05 11:10:00;;;;;;;2.00;0.32;;;22.00;98.00;;;;;;4998497;28;20194;-74
2023/08/05 11:12:29;;;;;;;0.52;0.10;;;22.20;99.10;;;;;;5000893;28;20045;-73
2023/08/05 11:14:55;;;;;;;1.15;0.28;;;22.10;99.90;;;;;;5005003;28;20105;-73
2023/08/05 11:17:21;;;;;;;1.30;0.20;;;22.10;99.00;;;;;;5005936;28;20112;-72
2023/08/05 11:20:05;;;;;;;0.40;0.20;;;22.20;99.70;;;;;;4998783;28;20604;-73
2023/08/05 11:22:35;;;;;;;;;;;22.40;98.80;;;;;;5000210;28;20364;-74
2023/08/05 11:25:03;;;;;;;1.20;0.30;;;22.50;99.30;;;;;;5006967;28;19937;-74
2023/08/05 11:27:38;;;;;;;0.00;0.00;;;22.40;99.20;;;;;;5006281;28;20125;-73
2023/08/05 11:30:15;;;;;;;1.55;0.10;;;22.30;99.70;;;;;;5000661;28;20025;-74
2023/08/05 11:32:52;;;;;;;0.10;0.00;;;22.50;99.90;;;;;;5002533;28;20113;-74
2023/08/05 11:35:18;;;;;;;0.20;0.20;;;22.30;99.70;;;;;;5004734;28;20428;-74
2023/08/05 11:37:43;;;;;;;0.20;0.13;;;22.30;99.50;;;;;;5005568;28;20073;-74
2023/08/05 11:40:10;;;;;;;0.90;0.20;;;22.00;99.90;;;;;;5005988;28;20032;-74
2023/08/05 11:42:39;;;;;;;0.30;0.17;;;22.10;99.90;;;;;;5005931;28;20022;-74
2023/08/05 11:45:11;;;;;;;0.30;0.10;;;22.10;99.90;;;;;;5003804;28;20029;-74
2023/08/05 11:47:38;;;;;;;1.40;0.32;;;22.10;99.90;;;;;;5004999;28;20631;-74
2023/08/05 11:50:04;;;;;;;1.90;0.40;;;22.20;99.90;;;;;;5004710;28;20092;-74
2023/08/05 11:52:29;;;;;;;1.30;0.30;;;22.40;99.90;;;;;;5005490;28;20435;-73
2023/08/05 11:54:59;;;;;;;1.10;0.25;;;22.30;99.90;;;;;;5006532;28;20026;-75
2023/08/05 11:57:25;;;;;;;0.30;0.13;;;22.20;99.90;;;;;;5006852;28;20038;-74
2023/08/05 11:59:53;;;;;;;3.72;0.47;;;22.20;99.90;;;;;;5007703;28;20018;-76
2023/08/05 12:02:19;;;;;;;0.82;0.32;;;22.10;99.90;;;;;;5005337;28;20022;-76
2023/08/05 12:04:50;;;;;;;0.80;0.20;;;21.90;99.90;;;;;;5002633;28;20034;-76
2023/08/05 12:07:17;;;;;;;0.80;0.35;;;21.90;99.90;;;;;;5003429;28;20028;-75
2023/08/05 12:09:44;;;;;;;0.30;0.20;;;21.90;99.90;;;;;;4995275;28;20037;-76
2023/08/05 12:12:18;;;;;;;0.40;0.20;;;21.80;99.90;;;;;;5003651;28;20105;-75
2023/08/05 12:14:44;;;;;;;1.63;0.40;;;21.70;99.90;;;;;;5004856;28;20061;-75
2023/08/05 12:17:11;;;;;;;0.25;0.13;;;21.70;99.90;;;;;;5003930;28;20058;-76
2023/08/05 12:19:40;;;;;;;0.47;0.25;;;21.70;99.90;;;;;;5003713;28;20035;-76
2023/08/05 12:22:05;;;;;;;1.20;0.60;;;21.70;99.90;;;;;;4999098;28;20523;-75
2023/08/05 12:24:31;;;;;;;2.17;0.40;;;21.60;99.90;;;;;;5004679;28;20092;-76
2023/08/05 12:26:57;;;;;;;2.17;0.55;;;21.60;99.90;;;;;;5004147;28;20447;-76
2023/08/05 12:29:22;;;;;;;0.20;0.10;;;21.40;99.90;;;;;;5000830;28;20029;-76
2023/08/05 12:31:48;;;;;;;0.57;0.20;;;21.40;99.90;;;;;;5002732;28;20084;-75
2023/08/05 12:34:17;;;;;;;2.40;0.68;;;21.50;99.90;;;;;;5003208;28;20411;-75
2023/08/05 12:36:44;;;;;;;0.85;0.30;;;21.50;99.90;;;;;;5003360;28;20054;-75
2023/08/05 12:39:10;;;;;;;2.13;0.22;;;21.50;99.90;;;;;;5002187;28;20476;-77
2023/08/05 12:41:35;;;;;;;1.75;0.32;;;21.50;99.90;;;;;;5004281;28;20022;-75
2023/08/05 12:44:01;;;;;;;0.90;0.38;;;21.40;99.90;;;;;;5003788;28;20030;-76
2023/08/05 12:46:26;;;;;;;0.73;0.30;;;21.40;99.90;;;;;;5002942;28;20092;-75